Time;durP1;ratioP1;P1;durP2;ratioP2;P2;SDS_P1;SDS_P2;PMS_P1;PMS_P2;Temp;Humidity;BMP_temperature;BMP_pressure;BME280_temperature;BME280_humidity;BME280_pressure;Samples;Min_cycle;Max_cycle;Signal;HPM_P1;HPM_P2
2024/03/04 00:01:22;;;;;;;3.77;1.90;;;;;;;;;;10324293;28;20405;-86
2024/03/04 00:06:26;;;;;;;4.60;1.47;;;;;;;;;;10329026;28;20405;-87
2024/03/04 00:11:30;;;;;;;2.70;1.42;;;;;;;;;;10327490;28;20475;-87
2024/03/04 00:16:33;;;;;;;4.72;1.70;;;;;;;;;;10323362;28;20895;-87
2024/03/04 00:21:35;;;;;;;4.00;1.50;;;;;;;;;;10324556;28;20414;-86
2024/03/04 00:26:39;;;;;;;1.65;1.20;;;;;;;;;;10326036;28;20417;-86
2024/03/04 00:31:41;;;;;;;4.13;1.20;;;;;;;;;;10323956;28;20473;-87
2024/03/04 00:36:44;;;;;;;4.55;1.35;;;;;;;;;;10325581;28;20460;-86
2024/03/04 00:41:48;;;;;;;3.17;1.63;;;;;;;;;;10326099;28;20510;-87
2024/03/04 00:46:51;;;;;;;2.10;1.23;;;;;;;;;;10327123;28;20404;-86
2024/03/04 00:51:53;;;;;;;3.05;1.15;;;;;;;;;;10333656;28;20467;-86
2024/03/04 00:56:57;;;;;;;1.27;1.00;;;;;;;;;;10328783;28;20514;-86
2024/03/04 01:01:59;;;;;;;3.53;1.30;;;;;;;;;;10322478;28;20483;-86
2024/03/04 01:07:02;;;;;;;3.28;1.30;;;;;;;;;;10324305;28;20491;-87
2024/03/04 01:12:06;;;;;;;4.38;1.30;;;;;;;;;;10318283;28;20552;-86
2024/03/04 01:17:12;;;;;;;1.80;1.00;;;;;;;;;;10324441;28;20520;-86
2024/03/04 01:22:16;;;;;;;4.72;1.60;;;;;;;;;;10325177;28;20408;-86
2024/03/04 01:27:21;;;;;;;4.30;1.30;;;;;;;;;;10327825;28;20910;-86
2024/03/04 01:32:24;;;;;;;5.13;1.20;;;;;;;;;;10325976;28;20432;-88
2024/03/04 01:37:26;;;;;;;2.67;0.90;;;;;;;;;;10327421;28;20843;-86
2024/03/04 01:42:30;;;;;;;2.40;0.90;;;;;;;;;;10328278;28;20425;-87
2024/03/04 01:47:34;;;;;;;4.53;1.20;;;;;;;;;;10325605;28;20405;-86
2024/03/04 01:52:37;;;;;;;3.22;1.30;;;;;;;;;;10324455;28;20448;-87
2024/03/04 01:57:41;;;;;;;2.90;0.73;;;;;;;;;;10323969;28;20464;-86
2024/03/04 02:02:44;;;;;;;4.00;1.35;;;;;;;;;;10323845;28;20895;-86
2024/03/04 02:07:47;;;;;;;5.45;1.00;;;;;;;;;;10323144;28;20413;-86
2024/03/04 02:12:51;;;;;;;3.13;0.80;;;;;;;;;;10318878;28;20888;-85
2024/03/04 02:17:54;;;;;;;4.05;0.90;;;;;;;;;;10320541;28;20940;-86
2024/03/04 02:22:57;;;;;;;3.00;1.10;;;;;;;;;;10325319;28;20474;-86
2024/03/04 02:28:00;;;;;;;2.90;1.10;;;;;;;;;;10322355;28;20425;-85
2024/03/04 02:33:05;;;;;;;4.53;0.90;;;;;;;;;;10321777;28;20409;-85
2024/03/04 02:38:10;;;;;;;4.55;0.98;;;;;;;;;;10319240;28;20518;-85
2024/03/04 02:43:12;;;;;;;2.70;1.20;;;;;;;;;;10324462;28;20401;-86
2024/03/04 02:48:15;;;;;;;2.63;1.00;;;;;;;;;;10323888;28;20416;-84
2024/03/04 02:53:18;;;;;;;5.37;1.37;;;;;;;;;;10322493;28;20476;-85
2024/03/04 02:58:21;;;;;;;4.78;1.08;;;;;;;;;;10320767;28;20464;-85
2024/03/04 03:03:23;;;;;;;5.97;1.30;;;;;;;;;;10318362;28;20412;-86
2024/03/04 03:08:27;;;;;;;3.03;0.90;;;;;;;;;;10320227;28;20417;-86
2024/03/04 03:13:29;;;;;;;4.67;1.10;;;;;;;;;;10318142;28;20417;-86
2024/03/04 03:18:32;;;;;;;3.00;0.90;;;;;;;;;;10325254;28;20490;-85
2024/03/04 03:23:36;;;;;;;4.73;1.27;;;;;;;;;;10323784;28;20414;-85
2024/03/04 03:28:39;;;;;;;2.80;0.70;;;;;;;;;;10322126;28;20484;-86
2024/03/04 03:33:41;;;;;;;3.28;1.20;;;;;;;;;;10321628;28;20417;-87
2024/03/04 03:38:46;;;;;;;2.55;0.80;;;;;;;;;;10323502;28;20428;-86
2024/03/04 03:43:49;;;;;;;2.22;0.70;;;;;;;;;;10323046;28;21026;-85
2024/03/04 03:48:52;;;;;;;2.50;0.80;;;;;;;;;;10326718;28;20467;-85
2024/03/04 03:53:55;;;;;;;3.50;1.10;;;;;;;;;;10331860;28;20479;-85
2024/03/04 03:58:58;;;;;;;3.63;0.80;;;;;;;;;;10325782;28;20449;-86
2024/03/04 04:04:00;;;;;;;3.03;1.10;;;;;;;;;;10325559;28;20772;-85
2024/03/04 04:09:04;;;;;;;1.90;0.80;;;;;;;;;;10327958;28;20880;-86
2024/03/04 04:14:06;;;;;;;2.00;0.93;;;;;;;;;;10328280;28;20884;-86
2024/03/04 04:19:09;;;;;;;3.10;0.98;;;;;;;;;;10330256;28;20429;-87
2024/03/04 04:24:12;;;;;;;2.03;1.00;;;;;;;;;;10329273;28;20417;-86
2024/03/04 04:29:15;;;;;;;3.13;0.90;;;;;;;;;;10331263;28;20490;-86
2024/03/04 04:34:17;;;;;;;2.50;0.97;;;;;;;;;;10327821;28;20409;-87
2024/03/04 04:39:21;;;;;;;1.10;0.80;;;;;;;;;;10328648;28;20433;-87
2024/03/04 04:44:24;;;;;;;2.22;0.90;;;;;;;;;;10321972;28;20993;-86
2024/03/04 04:49:26;;;;;;;2.22;1.00;;;;;;;;;;10323711;28;20771;-86
2024/03/04 04:54:30;;;;;;;1.80;0.70;;;;;;;;;;10328388;28;20478;-87
2024/03/04 04:59:33;;;;;;;1.50;0.90;;;;;;;;;;10325874;28;20899;-87
2024/03/04 05:04:35;;;;;;;3.30;0.90;;;;;;;;;;10322628;28;20468;-87
2024/03/04 05:09:40;;;;;;;1.87;1.10;;;;;;;;;;10325458;28;20412;-87
2024/03/04 05:14:46;;;;;;;2.60;0.80;;;;;;;;;;10324652;28;20471;-87
2024/03/04 05:19:49;;;;;;;2.35;0.88;;;;;;;;;;10327021;28;20464;-87
2024/03/04 05:24:55;;;;;;;4.03;1.25;;;;;;;;;;10328527;28;20397;-85
2024/03/04 05:29:58;;;;;;;4.70;1.05;;;;;;;;;;10328478;28;20417;-87
2024/03/04 05:35:00;;;;;;;1.75;1.08;;;;;;;;;;10323661;28;20409;-87
2024/03/04 05:40:09;;;;;;;2.70;1.13;;;;;;;;;;10326256;28;20994;-87
2024/03/04 05:45:12;;;;;;;1.70;0.93;;;;;;;;;;10327253;28;20413;-87
2024/03/04 05:50:15;;;;;;;2.08;1.00;;;;;;;;;;10325069;28;20479;-87
2024/03/04 05:55:19;;;;;;;5.27;0.80;;;;;;;;;;10318240;28;20409;-86
2024/03/04 06:00:22;;;;;;;1.90;0.70;;;;;;;;;;10321997;28;20460;-84
2024/03/04 06:05:24;;;;;;;2.17;1.42;;;;;;;;;;10318463;28;20417;-85
2024/03/04 06:10:28;;;;;;;1.83;0.70;;;;;;;;;;10314002;28;20871;-84
2024/03/04 06:15:31;;;;;;;1.60;0.80;;;;;;;;;;10319341;28;20437;-84
2024/03/04 06:20:33;;;;;;;3.23;0.77;;;;;;;;;;10315077;28;20979;-84
2024/03/04 06:25:38;;;;;;;3.03;1.20;;;;;;;;;;10322308;28;20417;-85
2024/03/04 06:30:41;;;;;;;2.47;1.17;;;;;;;;;;10315807;28;20448;-85
2024/03/04 06:35:43;;;;;;;2.70;1.35;;;;;;;;;;10320138;28;20491;-84
2024/03/04 06:40:47;;;;;;;2.88;1.40;;;;;;;;;;10317722;28;20942;-85
2024/03/04 06:45:50;;;;;;;3.20;1.37;;;;;;;;;;10321639;28;20508;-88
2024/03/04 06:50:52;;;;;;;3.60;1.03;;;;;;;;;;10324510;28;20472;-86
2024/03/04 06:55:56;;;;;;;2.60;1.20;;;;;;;;;;10315517;28;20417;-86
2024/03/04 07:00:58;;;;;;;3.63;1.10;;;;;;;;;;10315591;28;20456;-86
2024/03/04 07:06:01;;;;;;;2.00;0.93;;;;;;;;;;10312187;28;20453;-87
2024/03/04 07:11:05;;;;;;;2.20;1.03;;;;;;;;;;10314500;28;21002;-87
2024/03/04 07:16:07;;;;;;;3.88;1.25;;;;;;;;;;10321008;28;20467;-88
2024/03/04 07:21:14;;;;;;;5.87;1.70;;;;;;;;;;10320951;28;20459;-87
2024/03/04 07:26:20;;;;;;;5.78;1.85;;;;;;;;;;10330372;28;20417;-87
2024/03/04 07:31:24;;;;;;;2.88;1.45;;;;;;;;;;10328199;28;20430;-88
2024/03/04 07:36:26;;;;;;;3.90;1.60;;;;;;;;;;10328666;28;20891;-88
2024/03/04 07:41:30;;;;;;;2.40;1.27;;;;;;;;;;10325646;28;20433;-86
2024/03/04 07:46:33;;;;;;;4.53;1.70;;;;;;;;;;10327686;28;20401;-87
2024/03/04 07:51:47;;;;;;;4.30;1.60;;;;;;;;;;10370151;23;20427;-88
2024/03/04 07:56:52;;;;;;;3.30;1.53;;;;;;;;;;10398163;28;20415;-88
2024/03/04 08:02:03;;;;;;;3.17;1.50;;;;;;;;;;10401520;28;20486;-88
2024/03/04 08:07:05;;;;;;;4.78;1.63;;;;;;;;;;10400942;28;20525;-88
2024/03/04 08:12:09;;;;;;;5.07;1.70;;;;;;;;;;10395032;28;20409;-88
2024/03/04 08:17:12;;;;;;;4.63;1.70;;;;;;;;;;10386146;28;20873;-88
2024/03/04 08:22:14;;;;;;;3.90;1.42;;;;;;;;;;10381083;28;20905;-88
2024/03/04 08:27:18;;;;;;;3.63;1.95;;;;;;;;;;10383837;28;20402;-87
2024/03/04 08:32:20;;;;;;;8.75;2.20;;;;;;;;;;10391425;28;20405;-87
2024/03/04 08:37:23;;;;;;;6.63;2.25;;;;;;;;;;10395050;28;20415;-88
2024/03/04 08:42:26;;;;;;;3.85;1.58;;;;;;;;;;10394960;28;20465;-88
2024/03/04 08:47:29;;;;;;;4.47;1.60;;;;;;;;;;10388061;28;20875;-87
2024/03/04 08:52:31;;;;;;;4.50;1.87;;;;;;;;;;10391298;28;21554;-88
2024/03/04 08:57:35;;;;;;;5.32;1.77;;;;;;;;;;10394089;28;20467;-88
2024/03/04 09:02:38;;;;;;;4.33;1.83;;;;;;;;;;10395639;28;20507;-88
2024/03/04 09:07:40;;;;;;;4.35;1.65;;;;;;;;;;10397396;28;20406;-87
2024/03/04 09:12:44;;;;;;;7.25;2.20;;;;;;;;;;10393811;28;20893;-87
2024/03/04 09:17:47;;;;;;;6.72;2.42;;;;;;;;;;10393533;28;20741;-87
2024/03/04 09:22:49;;;;;;;6.70;2.28;;;;;;;;;;10400921;28;20457;-88
2024/03/04 09:27:53;;;;;;;5.90;2.90;;;;;;;;;;10393641;28;20486;-87
2024/03/04 09:32:55;;;;;;;5.03;2.67;;;;;;;;;;10392940;28;20411;-88
2024/03/04 09:37:58;;;;;;;4.30;2.40;;;;;;;;;;10398706;28;20445;-87
2024/03/04 09:43:05;;;;;;;5.18;2.50;;;;;;;;;;10402682;28;20991;-88
2024/03/04 09:48:11;;;;;;;8.60;2.50;;;;;;;;;;10401065;28;20410;-89
2024/03/04 09:53:15;;;;;;;3.93;2.30;;;;;;;;;;10395022;28;20409;-88
2024/03/04 09:58:19;;;;;;;5.23;2.77;;;;;;;;;;10394563;28;20467;-88
2024/03/04 10:03:22;;;;;;;6.63;2.80;;;;;;;;;;10394841;28;20425;-88
2024/03/04 10:08:25;;;;;;;6.17;2.90;;;;;;;;;;10386533;28;20463;-87
2024/03/04 10:13:29;;;;;;;4.93;2.55;;;;;;;;;;10389653;28;20437;-88
2024/03/04 10:18:32;;;;;;;5.22;2.78;;;;;;;;;;10397916;28;20401;-87
2024/03/04 10:23:35;;;;;;;4.68;2.42;;;;;;;;;;10393092;28;20431;-87
2024/03/04 10:28:45;;;;;;;5.25;2.60;;;;;;;;;;10391179;28;20410;-87
2024/03/04 10:33:47;;;;;;;2.97;1.85;;;;;;;;;;10388012;28;20434;-86
2024/03/04 10:38:52;;;;;;;4.22;2.30;;;;;;;;;;10387340;28;20411;-88
2024/03/04 10:43:56;;;;;;;5.63;2.58;;;;;;;;;;10388991;28;20480;-88
2024/03/04 10:48:59;;;;;;;6.80;2.60;;;;;;;;;;10384399;28;20440;-88
2024/03/04 10:54:03;;;;;;;5.07;2.70;;;;;;;;;;10384382;28;20473;-87
2024/03/04 10:59:10;;;;;;;6.13;2.92;;;;;;;;;;10385061;28;20469;-88
2024/03/04 11:04:14;;;;;;;5.73;2.43;;;;;;;;;;10389065;28;20495;-86
2024/03/04 11:09:16;;;;;;;4.20;2.83;;;;;;;;;;10386646;28;20486;-86
2024/03/04 11:14:29;;;;;;;6.03;2.65;;;;;;;;;;10392820;28;20414;-87
2024/03/04 11:19:39;;;;;;;5.18;2.90;;;;;;;;;;10390123;28;20513;-87
2024/03/04 11:24:41;;;;;;;5.25;3.08;;;;;;;;;;10390899;28;20432;-88
2024/03/04 11:29:46;;;;;;;5.78;2.80;;;;;;;;;;10390685;28;20411;-88
2024/03/04 11:35:09;;;;;;;6.00;2.65;;;;;;;;;;10395552;28;20593;-87
2024/03/04 11:40:17;;;;;;;3.78;2.00;;;;;;;;;;10391735;28;20518;-87
2024/03/04 11:45:22;;;;;;;4.03;1.70;;;;;;;;;;10394083;28;20411;-87
2024/03/04 11:50:44;;;;;;;7.90;1.90;;;;;;;;;;10388928;28;20411;-88
2024/03/04 11:55:49;;;;;;;4.45;2.00;;;;;;;;;;10382390;28;20465;-87
2024/03/04 12:01:06;;;;;;;5.97;1.83;;;;;;;;;;10384477;28;20938;-88
2024/03/04 12:06:11;;;;;;;3.83;1.58;;;;;;;;;;10384148;28;20573;-87
2024/03/04 12:11:15;;;;;;;3.72;1.13;;;;;;;;;;10405474;28;20903;-85
2024/03/04 12:16:19;;;;;;;4.15;1.50;;;;;;;;;;10402749;28;20413;-84
2024/03/04 12:21:22;;;;;;;5.30;1.30;;;;;;;;;;10393798;28;20488;-85
2024/03/04 12:26:24;;;;;;;4.93;1.50;;;;;;;;;;10390967;28;20778;-85
2024/03/04 12:31:31;;;;;;;6.30;1.80;;;;;;;;;;10380523;28;20481;-84
2024/03/04 12:36:34;;;;;;;7.15;1.52;;;;;;;;;;10385388;28;20419;-84
2024/03/04 12:41:36;;;;;;;3.90;1.20;;;;;;;;;;10388648;28;20971;-84
2024/03/04 12:46:42;;;;;;;3.00;1.70;;;;;;;;;;10374374;28;20419;-84
2024/03/04 12:51:46;;;;;;;5.03;1.40;;;;;;;;;;10375051;28;20408;-84
2024/03/04 12:56:48;;;;;;;3.38;1.23;;;;;;;;;;10371524;28;20438;-85
2024/03/04 13:01:52;;;;;;;4.63;1.40;;;;;;;;;;10375270;28;20429;-84
2024/03/04 13:06:55;;;;;;;6.05;1.80;;;;;;;;;;10383941;28;20909;-86
2024/03/04 13:11:57;;;;;;;3.13;1.30;;;;;;;;;;10381297;28;20417;-84
2024/03/04 13:17:01;;;;;;;7.67;1.70;;;;;;;;;;10381157;28;20477;-84
2024/03/04 13:22:04;;;;;;;4.18;1.50;;;;;;;;;;10385037;28;20437;-85
2024/03/04 13:27:08;;;;;;;4.72;1.60;;;;;;;;;;10399463;28;20454;-85
2024/03/04 13:32:12;;;;;;;2.83;1.45;;;;;;;;;;10384915;28;20479;-85
2024/03/04 13:37:14;;;;;;;5.07;1.40;;;;;;;;;;10386728;28;20423;-84
2024/03/04 13:42:17;;;;;;;3.85;1.45;;;;;;;;;;10394037;28;20404;-84
2024/03/04 13:47:20;;;;;;;4.65;1.23;;;;;;;;;;10382882;28;20415;-84
2024/03/04 13:52:23;;;;;;;5.45;1.85;;;;;;;;;;10383061;28;20431;-84
2024/03/04 13:57:25;;;;;;;4.38;1.20;;;;;;;;;;10389275;28;20838;-84
2024/03/04 14:02:31;;;;;;;3.95;1.35;;;;;;;;;;10382470;28;20790;-84
2024/03/04 14:07:33;;;;;;;3.13;1.40;;;;;;;;;;10388878;28;20409;-84
2024/03/04 14:12:36;;;;;;;3.30;1.13;;;;;;;;;;10394048;28;20467;-84
2024/03/04 14:17:40;;;;;;;2.87;1.20;;;;;;;;;;10395219;28;20897;-85
2024/03/04 14:22:42;;;;;;;2.85;1.17;;;;;;;;;;10389622;28;20507;-84
2024/03/04 14:27:45;;;;;;;3.92;1.50;;;;;;;;;;10394715;28;20432;-85
2024/03/04 14:32:48;;;;;;;3.43;1.57;;;;;;;;;;10384721;28;20403;-85
2024/03/04 14:37:51;;;;;;;3.53;1.40;;;;;;;;;;10386363;28;20823;-85
2024/03/04 14:42:54;;;;;;;6.07;1.40;;;;;;;;;;10396853;28;20459;-84
2024/03/04 14:47:58;;;;;;;4.63;1.60;;;;;;;;;;10389685;28;20965;-85
2024/03/04 14:53:00;;;;;;;4.13;1.40;;;;;;;;;;10389664;28;20405;-84
2024/03/04 14:58:03;;;;;;;7.63;1.50;;;;;;;;;;10388315;28;20881;-85
2024/03/04 15:03:08;;;;;;;6.27;1.60;;;;;;;;;;10375857;28;20538;-85
2024/03/04 15:08:12;;;;;;;3.83;1.67;;;;;;;;;;10388134;28;20954;-85
2024/03/04 15:13:14;;;;;;;4.77;1.70;;;;;;;;;;10383678;28;20406;-85
2024/03/04 15:18:18;;;;;;;6.03;1.83;;;;;;;;;;10385734;28;20974;-83
2024/03/04 15:23:20;;;;;;;6.47;1.98;;;;;;;;;;10403477;28;20585;-84
2024/03/04 15:28:23;;;;;;;5.10;1.48;;;;;;;;;;10425193;28;20760;-84
2024/03/04 15:33:27;;;;;;;8.35;1.90;;;;;;;;;;10408791;28;20408;-83
2024/03/04 15:38:29;;;;;;;5.47;1.40;;;;;;;;;;10387895;28;20471;-83
2024/03/04 15:43:32;;;;;;;6.80;1.63;;;;;;;;;;10399982;28;20415;-84
2024/03/04 15:48:36;;;;;;;4.80;1.48;;;;;;;;;;10394411;28;20946;-84
2024/03/04 15:53:40;;;;;;;3.75;1.50;;;;;;;;;;10405546;28;20441;-84
2024/03/04 15:58:44;;;;;;;8.33;2.23;;;;;;;;;;10394682;28;20447;-84
2024/03/04 16:03:48;;;;;;;6.43;2.90;;;;;;;;;;10401642;28;20517;-86
2024/03/04 16:08:50;;;;;;;5.00;1.70;;;;;;;;;;10401876;28;20441;-83
2024/03/04 16:13:53;;;;;;;4.47;2.15;;;;;;;;;;10378496;28;20518;-82
2024/03/04 16:18:57;;;;;;;7.63;3.60;;;;;;;;;;10395818;28;20511;-82
2024/03/04 16:23:59;;;;;;;7.35;2.30;;;;;;;;;;10394578;28;21009;-83
2024/03/04 16:29:04;;;;;;;9.23;2.50;;;;;;;;;;10391659;28;20495;-82
2024/03/04 16:34:07;;;;;;;5.13;3.13;;;;;;;;;;10398899;28;21121;-82
2024/03/04 16:39:13;;;;;;;7.47;4.53;;;;;;;;;;10383715;28;20855;-83
2024/03/04 16:44:15;;;;;;;6.28;3.40;;;;;;;;;;10384450;28;20921;-83
2024/03/04 16:49:24;;;;;;;9.63;4.30;;;;;;;;;;10382623;28;21324;-82
2024/03/04 16:54:26;;;;;;;18.70;7.10;;;;;;;;;;10393018;28;20511;-81
2024/03/04 16:59:36;;;;;;;32.77;13.47;;;;;;;;;;10384670;28;21011;-82
2024/03/04 17:04:41;;;;;;;54.33;19.70;;;;;;;;;;10396998;28;20832;-82
2024/03/04 17:09:43;;;;;;;20.92;10.57;;;;;;;;;;10377749;28;20991;-83
2024/03/04 17:14:46;;;;;;;24.73;11.10;;;;;;;;;;10385998;28;20447;-82
2024/03/04 17:19:50;;;;;;;20.98;7.40;;;;;;;;;;10387412;28;20458;-82
2024/03/04 17:24:53;;;;;;;17.90;8.13;;;;;;;;;;10381477;28;20533;-82
2024/03/04 17:29:55;;;;;;;19.97;10.90;;;;;;;;;;10386660;28;20522;-83
2024/03/04 17:35:03;;;;;;;26.53;12.10;;;;;;;;;;10378849;28;20433;-83
2024/03/04 17:40:09;;;;;;;15.63;8.40;;;;;;;;;;10377034;28;20435;-84
2024/03/04 17:45:13;;;;;;;12.65;8.55;;;;;;;;;;10374130;28;20513;-83
2024/03/04 17:50:17;;;;;;;17.05;9.57;;;;;;;;;;10377244;28;20524;-83
2024/03/04 17:55:24;;;;;;;14.90;8.53;;;;;;;;;;10381682;28;20435;-84
2024/03/04 18:00:27;;;;;;;13.85;7.50;;;;;;;;;;10379244;28;20433;-83
2024/03/04 18:05:31;;;;;;;11.77;7.07;;;;;;;;;;10382478;28;20786;-83
2024/03/04 18:10:33;;;;;;;11.32;6.60;;;;;;;;;;10381064;28;20491;-77
2024/03/04 18:15:36;;;;;;;17.45;9.05;;;;;;;;;;10380644;28;20478;-85
2024/03/04 18:20:41;;;;;;;27.50;13.70;;;;;;;;;;10372243;28;20458;-85
2024/03/04 18:25:47;;;;;;;21.77;11.90;;;;;;;;;;10375653;28;20570;-84
2024/03/04 18:30:50;;;;;;;14.40;8.88;;;;;;;;;;10378292;28;20481;-84
2024/03/04 18:35:53;;;;;;;14.73;8.23;;;;;;;;;;10374459;28;20466;-85
2024/03/04 18:40:58;;;;;;;13.95;7.78;;;;;;;;;;10373173;28;20524;-85
2024/03/04 18:46:07;;;;;;;14.38;8.07;;;;;;;;;;10377976;28;20440;-85
2024/03/04 18:51:12;;;;;;;15.23;8.05;;;;;;;;;;10373418;28;20468;-85
2024/03/04 18:56:15;;;;;;;11.20;7.40;;;;;;;;;;10374145;28;20529;-85
2024/03/04 19:01:23;;;;;;;11.88;7.95;;;;;;;;;;10372514;28;20517;-85
2024/03/04 19:06:27;;;;;;;13.48;7.95;;;;;;;;;;10375468;28;21001;-85
2024/03/04 19:11:33;;;;;;;16.17;10.38;;;;;;;;;;10372160;28;20548;-85
2024/03/04 19:16:36;;;;;;;22.85;10.80;;;;;;;;;;10381971;28;20439;-85
2024/03/04 19:21:42;;;;;;;16.70;9.65;;;;;;;;;;10376231;28;20519;-85
2024/03/04 19:26:45;;;;;;;18.48;10.05;;;;;;;;;;10392535;28;20444;-86
2024/03/04 19:31:47;;;;;;;16.77;9.48;;;;;;;;;;10385853;28;20421;-84
2024/03/04 20:32:12;;;;;;;29.25;15.90;;;;;;;;;;10377494;28;20409;-85
2024/03/04 20:37:17;;;;;;;24.52;14.98;;;;;;;;;;10386464;28;20405;-86
2024/03/04 20:42:25;;;;;;;23.92;15.85;;;;;;;;;;10378744;28;20455;-85
2024/03/04 20:47:29;;;;;;;33.10;16.07;;;;;;;;;;10380740;28;20910;-86
2024/03/04 20:52:32;;;;;;;22.73;13.00;;;;;;;;;;10387009;28;20610;-86
2024/03/04 20:57:34;;;;;;;22.33;12.43;;;;;;;;;;10378617;28;20942;-84
2024/03/04 21:02:38;;;;;;;12.55;8.57;;;;;;;;;;10383852;28;20988;-85
2024/03/04 21:07:41;;;;;;;23.70;12.23;;;;;;;;;;10388181;28;20462;-87
2024/03/04 21:12:45;;;;;;;17.73;10.13;;;;;;;;;;10393315;28;20405;-85
2024/03/04 21:17:54;;;;;;;16.42;10.20;;;;;;;;;;10382531;28;20489;-85
2024/03/04 21:23:02;;;;;;;17.08;10.10;;;;;;;;;;10384847;28;20459;-86
2024/03/04 21:28:06;;;;;;;17.92;10.27;;;;;;;;;;10386385;28;20890;-87
2024/03/04 21:33:13;;;;;;;16.88;9.80;;;;;;;;;;10377606;28;20498;-86
2024/03/04 21:38:15;;;;;;;16.93;9.83;;;;;;;;;;10378478;28;20415;-86
2024/03/04 21:43:17;;;;;;;28.33;14.77;;;;;;;;;;10380415;28;20482;-86
2024/03/04 21:48:23;;;;;;;19.87;11.07;;;;;;;;;;10379508;28;21003;-86
2024/03/04 21:53:25;;;;;;;15.83;10.27;;;;;;;;;;10385504;28;21066;-84
2024/03/04 21:58:28;;;;;;;17.25;9.25;;;;;;;;;;10383231;28;20450;-86
2024/03/04 22:03:31;;;;;;;15.35;9.77;;;;;;;;;;10382675;28;20493;-86
2024/03/04 22:08:34;;;;;;;14.23;9.00;;;;;;;;;;10387738;28;20410;-85
2024/03/04 22:13:38;;;;;;;16.85;8.77;;;;;;;;;;10380782;28;20401;-86
2024/03/04 22:18:42;;;;;;;15.95;9.13;;;;;;;;;;10391264;28;20397;-85
2024/03/04 22:23:47;;;;;;;16.40;9.50;;;;;;;;;;10388898;28;20423;-86
2024/03/04 22:28:49;;;;;;;12.93;8.57;;;;;;;;;;10408833;28;20508;-86
2024/03/04 22:33:56;;;;;;;12.53;8.73;;;;;;;;;;10404952;28;20448;-86
2024/03/04 22:38:58;;;;;;;13.67;8.97;;;;;;;;;;10399720;28;20415;-85
2024/03/04 22:44:01;;;;;;;14.03;8.60;;;;;;;;;;10393760;28;20512;-85
2024/03/04 22:49:04;;;;;;;18.43;9.33;;;;;;;;;;10391191;28;20439;-87
2024/03/04 22:54:07;;;;;;;15.57;9.20;;;;;;;;;;10393645;28;20445;-89
2024/03/04 22:59:10;;;;;;;12.55;8.02;;;;;;;;;;10406286;28;20939;-88
2024/03/04 23:04:13;;;;;;;15.20;7.97;;;;;;;;;;10395540;28;20453;-88
2024/03/04 23:09:16;;;;;;;13.60;7.18;;;;;;;;;;10384809;28;20447;-88
2024/03/04 23:14:18;;;;;;;12.43;7.22;;;;;;;;;;10374820;28;20414;-88
2024/03/04 23:19:22;;;;;;;11.40;6.70;;;;;;;;;;10380337;28;20410;-86
2024/03/04 23:24:25;;;;;;;9.32;5.70;;;;;;;;;;10375612;28;20415;-88
2024/03/04 23:29:27;;;;;;;13.18;6.50;;;;;;;;;;10380627;28;20407;-87
2024/03/04 23:34:31;;;;;;;11.18;6.60;;;;;;;;;;10374430;28;20454;-88
2024/03/04 23:39:34;;;;;;;9.52;6.65;;;;;;;;;;10383145;28;20421;-87
2024/03/04 23:44:37;;;;;;;12.50;7.63;;;;;;;;;;10387494;28;20489;-88
2024/03/04 23:49:40;;;;;;;12.85;7.43;;;;;;;;;;10377966;28;20407;-88
2024/03/04 23:54:43;;;;;;;12.77;8.15;;;;;;;;;;10385046;28;20411;-88
2024/03/04 23:59:47;;;;;;;16.88;8.00;;;;;;;;;;10383815;28;20498;-88
